Time;durP1;ratioP1;P1;durP2;ratioP2;P2;SDS_P1;SDS_P2;PMS_P1;PMS_P2;Temp;Humidity;BMP_temperature;BMP_pressure;BME280_temperature;BME280_humidity;BME280_pressure;Samples;Min_cycle;Max_cycle;Signal;HPM_P1;HPM_P2
2022/04/20 00:01:17;;;;;;;3.93;1.90;;;15.60;96.70;;;;;;5017121;28;20054;-80
2022/04/20 00:03:45;;;;;;;4.78;2.33;;;15.50;96.70;;;;;;5004515;28;20716;-81
2022/04/20 00:06:14;;;;;;;2.72;2.10;;;15.60;96.70;;;;;;5021358;28;20509;-81
2022/04/20 00:08:42;;;;;;;4.55;2.05;;;15.70;96.70;;;;;;5019834;28;20033;-79
2022/04/20 00:11:10;;;;;;;4.78;2.50;;;15.70;96.70;;;;;;4996367;28;20057;-81
2022/04/20 00:13:39;;;;;;;4.43;2.92;;;15.60;96.70;;;;;;5020343;28;20521;-81
2022/04/20 00:16:07;;;;;;;6.40;2.20;;;15.50;96.70;;;;;;5012385;28;20045;-81
2022/04/20 00:18:36;;;;;;;6.22;2.53;;;15.30;96.70;;;;;;5018441;28;20511;-80
2022/04/20 00:21:04;;;;;;;4.53;2.20;;;15.20;96.70;;;;;;5020698;28;20073;-81
2022/04/20 00:23:32;;;;;;;4.47;2.20;;;15.30;96.70;;;;;;5027890;28;20052;-80
2022/04/20 00:26:00;;;;;;;4.38;2.60;;;15.30;96.70;;;;;;5012713;28;20060;-79
2022/04/20 00:28:29;;;;;;;6.30;2.45;;;15.30;96.70;;;;;;5020387;28;20045;-80
2022/04/20 00:30:57;;;;;;;4.28;1.98;;;15.30;96.70;;;;;;5012502;28;20057;-81
2022/04/20 00:33:25;;;;;;;6.63;2.28;;;15.40;96.70;;;;;;5009723;28;20475;-80
2022/04/20 00:35:54;;;;;;;4.35;2.30;;;15.30;96.70;;;;;;5017881;28;20160;-80
2022/04/20 00:38:23;;;;;;;2.55;1.80;;;15.30;96.70;;;;;;5001900;28;20136;-81
2022/04/20 00:40:52;;;;;;;3.78;2.15;;;15.40;96.70;;;;;;5017886;28;20042;-87
2022/04/20 00:43:21;;;;;;;2.85;2.05;;;15.40;96.70;;;;;;5014937;28;20132;-86
2022/04/20 00:45:50;;;;;;;2.92;1.67;;;15.30;96.70;;;;;;5017399;28;20038;-87
2022/04/20 00:48:19;;;;;;;3.75;1.52;;;15.30;96.70;;;;;;5021328;28;20080;-86
2022/04/20 00:50:48;;;;;;;3.20;1.52;;;15.30;96.70;;;;;;5014152;28;20037;-87
2022/04/20 00:53:18;;;;;;;2.78;1.58;;;15.40;96.70;;;;;;5012638;28;20139;-86
2022/04/20 00:55:46;;;;;;;2.92;2.05;;;15.40;96.70;;;;;;5018779;28;20510;-87
2022/04/20 00:58:14;;;;;;;4.00;1.85;;;15.40;96.70;;;;;;5022033;28;20045;-86
2022/04/20 01:00:42;;;;;;;3.97;2.17;;;15.30;96.70;;;;;;5008061;28;20439;-86
2022/04/20 01:03:10;;;;;;;2.95;2.00;;;15.40;96.70;;;;;;5028416;28;20099;-87
2022/04/20 01:05:58;;;;;;;3.85;1.88;;;15.40;96.70;;;;;;5015081;28;20053;-86
2022/04/20 01:09:03;;;;;;;4.93;2.33;;;15.40;96.70;;;;;;4981026;28;20063;-84
2022/04/20 01:11:41;;;;;;;2.83;1.98;;;15.30;96.70;;;;;;4961512;28;20051;-88
2022/04/20 01:14:38;;;;;;;;;;;15.30;96.70;;;;;;4966920;28;20094;-85
2022/04/20 01:17:24;;;;;;;2.72;1.80;;;15.40;96.70;;;;;;4975142;28;20582;-86
2022/04/20 01:19:58;;;;;;;4.53;2.15;;;15.40;96.70;;;;;;4957147;28;20078;-87
2022/04/20 01:22:48;;;;;;;3.47;2.03;;;15.40;96.70;;;;;;4961087;28;20046;-87
2022/04/20 01:25:45;;;;;;;4.07;1.88;;;15.40;96.70;;;;;;4960820;28;20047;-87
2022/04/20 01:28:45;;;;;;;3.50;1.95;;;15.40;96.70;;;;;;4969495;28;20074;-86
2022/04/20 01:31:31;;;;;;;4.57;2.03;;;15.30;96.70;;;;;;4952929;28;20043;-87
2022/04/20 01:34:11;;;;;;;2.97;2.10;;;15.30;96.70;;;;;;4969208;28;20137;-86
2022/04/20 01:36:40;;;;;;;3.53;2.20;;;15.30;96.70;;;;;;4946320;28;20053;-85
2022/04/20 01:39:09;;;;;;;5.43;2.28;;;15.30;96.70;;;;;;4955701;28;20054;-86
2022/04/20 01:41:38;;;;;;;4.47;2.22;;;15.30;96.70;;;;;;4963437;28;20505;-86
2022/04/20 01:44:06;;;;;;;2.95;2.30;;;15.20;96.70;;;;;;4998608;28;20053;-86
2022/04/20 01:47:00;;;;;;;3.65;2.17;;;15.20;96.70;;;;;;5026398;28;20063;-85
2022/04/20 01:49:34;;;;;;;2.67;1.98;;;15.20;96.70;;;;;;5020625;28;20092;-86
2022/04/20 01:52:27;;;;;;;2.85;1.83;;;15.30;96.70;;;;;;5016363;28;20491;-86
2022/04/20 01:55:24;;;;;;;3.75;2.00;;;15.30;96.70;;;;;;5007658;28;20537;-86
2022/04/20 01:58:12;;;;;;;5.78;1.85;;;15.30;96.70;;;;;;5015670;28;20136;-86
2022/04/20 02:02:34;;;;;;;3.28;2.03;;;15.30;96.70;;;;;;5023842;28;20057;-86
2022/04/20 02:03:51;;;;;;;5.25;2.13;;;15.30;96.70;;;;;;5013959;28;20049;-87
2022/04/20 02:06:20;;;;;;;3.22;1.77;;;15.20;96.70;;;;;;5020685;28;20041;-86
2022/04/20 02:08:59;;;;;;;4.72;1.98;;;15.20;96.70;;;;;;5021832;28;20494;-87
2022/04/20 02:11:47;;;;;;;2.70;1.80;;;15.20;96.70;;;;;;5029438;28;20052;-86
2022/04/20 02:14:40;;;;;;;5.50;1.90;;;15.20;96.70;;;;;;5013889;28;20389;-86
2022/04/20 02:17:30;;;;;;;2.42;1.65;;;15.20;96.70;;;;;;5021448;28;20053;-87
2022/04/20 02:19:58;;;;;;;2.13;1.58;;;15.00;96.70;;;;;;5003796;28;20045;-85
2022/04/20 02:22:28;;;;;;;4.43;1.90;;;15.10;96.70;;;;;;5006600;28;20045;-81
2022/04/20 02:24:59;;;;;;;3.17;1.63;;;15.20;96.70;;;;;;5014293;28;20041;-81
2022/04/20 02:27:29;;;;;;;3.60;2.00;;;15.20;96.70;;;;;;5016694;28;20068;-80
2022/04/20 02:29:57;;;;;;;3.88;1.80;;;15.10;96.70;;;;;;4997964;28;20141;-81
2022/04/20 02:32:25;;;;;;;2.50;1.60;;;15.20;96.70;;;;;;5023513;28;20042;-79
2022/04/20 02:34:53;;;;;;;2.60;1.55;;;15.20;96.70;;;;;;4994534;28;20447;-80
2022/04/20 02:37:22;;;;;;;2.65;1.70;;;15.20;96.70;;;;;;5022423;28;20071;-81
2022/04/20 02:39:53;;;;;;;2.30;1.55;;;15.20;96.70;;;;;;5012659;28;20084;-81
2022/04/20 02:42:21;;;;;;;3.03;1.52;;;15.10;96.70;;;;;;5005223;28;20057;-81
2022/04/20 02:44:51;;;;;;;3.60;1.60;;;15.10;96.70;;;;;;5031420;28;20586;-81
2022/04/20 02:47:19;;;;;;;3.90;1.42;;;15.10;96.70;;;;;;5005166;28;20619;-80
2022/04/20 02:49:47;;;;;;;5.60;2.08;;;15.10;96.70;;;;;;5015073;28;20088;-81
2022/04/20 02:52:15;;;;;;;4.97;1.80;;;14.90;96.70;;;;;;5005429;28;20686;-80
2022/04/20 02:54:43;;;;;;;3.88;1.60;;;14.80;96.70;;;;;;5018929;28;20045;-81
2022/04/20 02:57:11;;;;;;;4.45;1.80;;;14.90;96.70;;;;;;5019254;28;20042;-79
2022/04/20 02:59:39;;;;;;;5.47;1.92;;;14.90;96.70;;;;;;5011785;28;20165;-80
2022/04/20 03:02:09;;;;;;;4.55;2.08;;;14.90;96.70;;;;;;5009821;28;20071;-81
2022/04/20 03:04:38;;;;;;;3.72;1.83;;;14.90;96.70;;;;;;5013639;28;20057;-81
2022/04/20 03:07:07;;;;;;;3.17;1.52;;;14.90;96.70;;;;;;5003208;28;20499;-81
2022/04/20 03:09:47;;;;;;;3.83;1.65;;;14.80;96.70;;;;;;5015383;28;20048;-81
2022/04/20 03:12:17;;;;;;;4.68;1.90;;;14.80;96.70;;;;;;5000455;28;20045;-80
2022/04/20 03:14:54;;;;;;;2.60;1.90;;;14.80;96.70;;;;;;5030341;28;20053;-79
2022/04/20 03:17:25;;;;;;;3.40;1.52;;;14.80;96.70;;;;;;5011610;28;20060;-79
2022/04/20 03:19:54;;;;;;;3.88;1.73;;;14.80;96.70;;;;;;5020812;28;20582;-79
2022/04/20 03:22:22;;;;;;;3.80;1.52;;;14.80;96.70;;;;;;5017355;28;20049;-80
2022/04/20 03:24:51;;;;;;;5.03;1.70;;;14.80;96.70;;;;;;5020964;28;20072;-81
2022/04/20 03:27:29;;;;;;;6.90;2.13;;;14.70;96.70;;;;;;5018264;28;20060;-80
2022/04/20 03:30:01;;;;;;;2.78;1.60;;;14.70;96.70;;;;;;5015298;28;20049;-81
2022/04/20 03:32:31;;;;;;;2.35;1.67;;;14.60;96.70;;;;;;5015527;28;20049;-81
2022/04/20 03:35:00;;;;;;;3.67;1.67;;;14.60;96.70;;;;;;4985882;28;20054;-80
2022/04/20 03:37:29;;;;;;;4.22;1.70;;;14.60;96.70;;;;;;5009367;28;20050;-80
2022/04/20 03:39:59;;;;;;;3.50;1.80;;;14.70;96.70;;;;;;5018025;28;20069;-80
2022/04/20 03:42:27;;;;;;;3.03;1.75;;;14.70;96.70;;;;;;5012419;28;20041;-80
2022/04/20 03:44:57;;;;;;;2.47;1.67;;;14.70;96.70;;;;;;5013859;28;20481;-81
2022/04/20 03:47:25;;;;;;;4.07;1.88;;;14.70;96.70;;;;;;5013570;28;20044;-81
2022/04/20 03:49:56;;;;;;;5.43;1.70;;;14.70;96.70;;;;;;5020812;28;20155;-81
2022/04/20 03:52:25;;;;;;;4.43;1.80;;;14.70;96.70;;;;;;4993568;28;20885;-81
2022/04/20 03:54:53;;;;;;;5.30;2.05;;;14.70;96.70;;;;;;5007747;28;20087;-80
2022/04/20 03:57:22;;;;;;;4.65;2.30;;;14.70;96.70;;;;;;4999029;28;20057;-80
2022/04/20 03:59:50;;;;;;;4.57;2.47;;;14.80;96.70;;;;;;5011671;28;20045;-81
2022/04/20 04:02:21;;;;;;;4.45;2.38;;;14.80;96.70;;;;;;5018600;28;20045;-81
2022/04/20 04:05:01;;;;;;;3.95;2.55;;;14.80;96.70;;;;;;4995018;28;20037;-81
2022/04/20 04:07:48;;;;;;;3.80;2.42;;;14.70;96.70;;;;;;5014993;28;20460;-80
2022/04/20 04:10:21;;;;;;;8.10;3.13;;;14.70;96.70;;;;;;5014344;28;20529;-81
2022/04/20 04:12:50;;;;;;;7.28;3.03;;;14.70;96.70;;;;;;5000008;28;20048;-81
2022/04/20 04:15:18;;;;;;;4.35;2.75;;;14.70;96.70;;;;;;4997614;28;20057;-81
2022/04/20 04:17:54;;;;;;;5.18;2.80;;;14.70;96.70;;;;;;4995906;28;20045;-80
2022/04/20 04:20:28;;;;;;;5.28;2.67;;;14.70;96.70;;;;;;5010778;28;20163;-80
2022/04/20 04:22:56;;;;;;;7.10;3.00;;;14.60;96.70;;;;;;5019882;28;20499;-81
2022/04/20 04:25:54;;;;;;;6.45;2.65;;;14.50;96.70;;;;;;4996939;28;20057;-80
2022/04/20 04:28:40;;;;;;;4.93;2.47;;;14.50;96.70;;;;;;5033967;28;20149;-80
2022/04/20 04:31:09;;;;;;;5.28;2.22;;;14.50;96.70;;;;;;5006945;28;20458;-80
2022/04/20 04:33:37;;;;;;;2.47;2.00;;;14.50;96.70;;;;;;5037015;28;20152;-80
2022/04/20 04:36:07;;;;;;;3.50;1.95;;;14.50;96.70;;;;;;5015893;28;20498;-81
2022/04/20 04:38:41;;;;;;;3.80;1.77;;;14.50;96.70;;;;;;4994045;28;20046;-81
2022/04/20 04:41:12;;;;;;;2.85;1.70;;;14.50;96.70;;;;;;5019399;28;20427;-82
2022/04/20 04:43:40;;;;;;;3.83;1.98;;;14.50;96.70;;;;;;5018737;28;20049;-81
2022/04/20 04:49:11;;;;;;;3.35;1.80;;;14.40;96.70;;;;;;5016171;28;20050;-81
2022/04/20 04:51:41;;;;;;;3.30;1.75;;;14.40;96.70;;;;;;5024856;28;20056;-82
2022/04/20 04:54:14;;;;;;;4.25;1.63;;;14.40;96.70;;;;;;4996103;28;20057;-82
2022/04/20 04:56:42;;;;;;;5.40;1.60;;;14.40;96.70;;;;;;5008365;28;20549;-82
2022/04/20 04:59:11;;;;;;;5.75;1.80;;;14.50;96.70;;;;;;5019920;28;20050;-82
2022/04/20 05:01:40;;;;;;;4.82;2.50;;;14.50;96.70;;;;;;5033042;28;20053;-81
2022/04/20 05:04:19;;;;;;;3.45;1.83;;;14.40;96.70;;;;;;5008385;28;20127;-82
2022/04/20 05:06:54;;;;;;;4.78;1.83;;;14.40;96.70;;;;;;4992266;28;20522;-82
2022/04/20 05:09:37;;;;;;;4.72;1.85;;;14.40;96.70;;;;;;5017060;28;20650;-80
2022/04/20 05:12:09;;;;;;;3.80;1.88;;;14.40;96.70;;;;;;5011881;28;20089;-81
2022/04/20 05:14:39;;;;;;;5.28;1.88;;;14.30;96.70;;;;;;5001641;28;20056;-81
2022/04/20 05:17:07;;;;;;;2.75;1.60;;;14.40;96.70;;;;;;4996532;28;20077;-81
2022/04/20 05:19:35;;;;;;;4.93;1.65;;;14.30;96.70;;;;;;5014889;28;20530;-82
2022/04/20 05:22:14;;;;;;;2.40;1.77;;;14.30;96.70;;;;;;5018287;28;20045;-81
2022/04/20 05:24:42;;;;;;;3.53;2.00;;;14.30;96.70;;;;;;5024274;28;20045;-81
2022/04/20 05:27:14;;;;;;;4.50;1.75;;;14.30;96.70;;;;;;5001212;28;20054;-82
2022/04/20 05:29:54;;;;;;;4.97;2.28;;;14.30;96.70;;;;;;5011543;28;20052;-82
2022/04/20 05:32:22;;;;;;;3.80;2.15;;;14.30;96.70;;;;;;5040778;28;20153;-82
2022/04/20 05:34:51;;;;;;;3.28;2.30;;;14.40;96.70;;;;;;5020734;28;20041;-82
2022/04/20 05:42:57;;;;;;;5.55;2.53;;;14.60;96.70;;;;;;5033467;28;20041;-82
2022/04/20 05:45:26;;;;;;;4.60;3.15;;;14.60;96.70;;;;;;4993946;28;20045;-81
2022/04/20 05:48:14;;;;;;;4.55;3.03;;;14.60;96.70;;;;;;5019023;28;20046;-81
2022/04/20 05:50:43;;;;;;;4.80;3.22;;;14.70;96.70;;;;;;5011463;28;20061;-85
2022/04/20 05:53:15;;;;;;;5.20;3.30;;;14.80;96.70;;;;;;5020219;28;20045;-85
2022/04/20 05:55:45;;;;;;;9.15;3.55;;;14.80;96.70;;;;;;5006026;28;20055;-83
2022/04/20 05:58:13;;;;;;;4.78;2.80;;;14.70;96.70;;;;;;5019730;28;20050;-84
2022/04/20 06:00:43;;;;;;;5.65;2.97;;;14.70;96.70;;;;;;5021035;28;20041;-83
2022/04/20 06:03:30;;;;;;;5.07;3.00;;;14.70;96.70;;;;;;5037076;28;20451;-82
2022/04/20 06:06:09;;;;;;;7.85;2.90;;;14.70;96.70;;;;;;5015081;28;20131;-81
2022/04/20 06:08:49;;;;;;;5.63;2.92;;;14.80;96.70;;;;;;5020519;28;20041;-87
2022/04/20 06:11:33;;;;;;;6.25;3.03;;;14.80;96.70;;;;;;5009181;28;20064;-81
2022/04/20 06:14:02;;;;;;;5.75;2.63;;;14.80;96.70;;;;;;5013102;28;20801;-82
2022/04/20 06:16:37;;;;;;;8.13;3.10;;;14.80;96.70;;;;;;5021424;28;20156;-82
2022/04/20 06:19:12;;;;;;;4.90;3.13;;;14.70;96.70;;;;;;5021570;28;20061;-82
2022/04/20 06:22:00;;;;;;;5.72;3.45;;;14.80;96.70;;;;;;5018489;28;20503;-83
2022/04/20 06:25:03;;;;;;;6.18;3.38;;;14.80;96.70;;;;;;5015631;28;20046;-84
2022/04/20 06:27:41;;;;;;;6.50;3.15;;;15.00;96.70;;;;;;5039322;28;20387;-84
2022/04/20 06:30:38;;;;;;;5.55;2.92;;;15.00;96.70;;;;;;5009256;28;20267;-85
2022/04/20 06:33:25;;;;;;;;;;;15.10;96.70;;;;;;5010861;28;20046;-88
2022/04/20 06:36:11;;;;;;;5.20;2.30;;;15.20;96.70;;;;;;5010985;28;20325;-85
2022/04/20 06:39:00;;;;;;;3.55;2.00;;;15.40;96.70;;;;;;5024063;28;20065;-84
2022/04/20 06:42:07;;;;;;;4.50;1.90;;;15.50;96.70;;;;;;4966797;28;20082;-84
2022/04/20 06:44:53;;;;;;;4.68;1.85;;;15.70;96.70;;;;;;4966384;28;20209;-84
2022/04/20 06:47:42;;;;;;;5.53;1.98;;;15.80;96.70;;;;;;4967054;28;20089;-84
2022/04/20 06:50:50;;;;;;;3.65;1.75;;;15.90;96.70;;;;;;4928532;29;20589;-84
2022/04/20 06:59:36;;;;;;;2.88;1.48;;;15.90;96.70;;;;;;4897052;29;20052;-87
2022/04/20 07:02:28;;;;;;;3.58;1.63;;;15.80;96.70;;;;;;4968955;28;20050;-87
2022/04/20 07:05:32;;;;;;;2.50;1.40;;;15.80;96.70;;;;;;4912230;29;20147;-83
2022/04/20 07:08:36;;;;;;;4.38;1.63;;;15.80;96.70;;;;;;4944538;28;20046;-83
2022/04/20 07:11:17;;;;;;;3.70;1.55;;;15.90;96.70;;;;;;4954099;28;20800;-84
2022/04/20 07:13:50;;;;;;;5.53;1.85;;;16.00;96.70;;;;;;4959334;28;20048;-84
2022/04/20 07:16:20;;;;;;;8.40;2.10;;;16.10;96.70;;;;;;4997941;28;20108;-84
2022/04/20 07:19:03;;;;;;;4.82;1.40;;;16.10;96.70;;;;;;5008819;28;20081;-86
2022/04/20 07:21:58;;;;;;;3.55;1.30;;;16.20;96.70;;;;;;5006086;28;20455;-84
2022/04/20 07:24:26;;;;;;;5.60;1.50;;;16.30;96.70;;;;;;5010733;28;20052;-83
2022/04/20 07:27:00;;;;;;;4.55;1.50;;;16.30;96.70;;;;;;5011822;28;20049;-83
2022/04/20 07:29:47;;;;;;;3.88;1.27;;;16.40;96.70;;;;;;5006147;28;20057;-84
2022/04/20 07:32:31;;;;;;;2.53;1.40;;;16.50;96.70;;;;;;5015218;28;20096;-84
2022/04/20 07:35:34;;;;;;;5.95;1.33;;;16.40;96.70;;;;;;5014675;28;20049;-84
2022/04/20 07:38:17;;;;;;;3.35;1.38;;;16.50;96.70;;;;;;5013069;28;20064;-88
2022/04/20 07:41:30;;;;;;;4.85;1.48;;;16.50;96.70;;;;;;4978102;28;20059;-85
2022/04/20 07:44:14;;;;;;;3.58;1.13;;;16.60;96.70;;;;;;4966588;28;20498;-85
2022/04/20 07:46:50;;;;;;;5.28;2.35;;;16.70;96.70;;;;;;5015589;28;20077;-85
2022/04/20 07:52:26;;;;;;;8.35;1.77;;;17.10;96.70;;;;;;5026490;28;20061;-86
2022/04/20 07:55:16;;;;;;;2.63;1.38;;;17.10;96.70;;;;;;4998785;28;20132;-84
2022/04/20 07:58:07;;;;;;;4.38;1.33;;;17.20;96.70;;;;;;5006797;28;20515;-84
2022/04/20 08:00:36;;;;;;;3.72;1.40;;;17.30;96.70;;;;;;5015098;28;20049;-84
2022/04/20 08:03:23;;;;;;;4.68;1.10;;;17.40;96.70;;;;;;5036492;28;20444;-85
2022/04/20 08:05:54;;;;;;;6.13;1.52;;;17.40;96.70;;;;;;5000334;28;20038;-86
2022/04/20 08:08:24;;;;;;;3.25;1.15;;;17.40;96.70;;;;;;5012648;28;20049;-85
2022/04/20 08:10:56;;;;;;;7.28;1.65;;;17.50;96.70;;;;;;5023838;28;20392;-86
2022/04/20 08:16:30;;;;;;;3.45;1.38;;;17.70;96.70;;;;;;5025828;28;20136;-87
2022/04/20 08:19:19;;;;;;;3.38;1.30;;;17.70;96.70;;;;;;5025224;28;20088;-86
2022/04/20 08:22:02;;;;;;;6.15;1.60;;;17.80;96.70;;;;;;4998100;28;20125;-85
2022/04/20 08:24:30;;;;;;;5.45;1.40;;;17.80;96.70;;;;;;5013001;28;20492;-85
2022/04/20 08:26:58;;;;;;;3.92;1.30;;;17.90;96.70;;;;;;5015180;28;20060;-84
2022/04/20 08:29:27;;;;;;;3.67;1.20;;;17.90;96.70;;;;;;5030910;28;20056;-84
2022/04/20 08:31:55;;;;;;;3.92;1.00;;;17.80;96.70;;;;;;5015736;28;20045;-85
2022/04/20 08:34:23;;;;;;;3.67;1.55;;;17.90;96.70;;;;;;5020347;28;20122;-85
2022/04/20 08:37:13;;;;;;;4.82;1.30;;;18.00;96.70;;;;;;5016023;28;20057;-85
2022/04/20 08:39:41;;;;;;;3.78;1.70;;;18.00;96.70;;;;;;5033244;28;20037;-85
2022/04/20 08:42:12;;;;;;;5.32;1.30;;;18.00;96.70;;;;;;5039550;28;20464;-85
2022/04/20 08:44:45;;;;;;;5.18;1.65;;;17.90;96.70;;;;;;5020971;28;20049;-85
2022/04/20 08:47:19;;;;;;;3.90;1.42;;;18.10;96.70;;;;;;5004690;28;20059;-86
2022/04/20 08:49:49;;;;;;;3.15;1.55;;;18.30;96.70;;;;;;5039177;28;20049;-85
2022/04/20 08:52:39;;;;;;;4.22;1.63;;;18.40;96.70;;;;;;5018677;28;20414;-89
2022/04/20 08:55:11;;;;;;;3.95;1.80;;;18.40;96.70;;;;;;5008489;28;20049;-86
2022/04/20 08:57:41;;;;;;;5.07;1.80;;;18.40;96.70;;;;;;5038798;28;20104;-86
2022/04/20 09:00:12;;;;;;;3.58;1.23;;;18.50;96.70;;;;;;5025160;28;20131;-85
2022/04/20 09:02:40;;;;;;;3.97;1.30;;;18.60;96.70;;;;;;5022509;28;20045;-85
2022/04/20 09:05:09;;;;;;;4.28;1.15;;;18.80;96.70;;;;;;5015275;28;20042;-85
2022/04/20 09:07:45;;;;;;;3.15;1.35;;;19.00;96.70;;;;;;5023502;28;20080;-86
2022/04/20 09:10:16;;;;;;;3.55;1.23;;;19.00;96.70;;;;;;5018727;28;20045;-85
2022/04/20 09:12:46;;;;;;;2.60;1.13;;;19.00;96.70;;;;;;4997036;28;20050;-85
2022/04/20 09:15:28;;;;;;;5.30;1.40;;;19.10;96.70;;;;;;5010805;28;20042;-87
2022/04/20 09:17:57;;;;;;;3.25;1.00;;;19.20;96.70;;;;;;5019069;28;20045;-85
2022/04/20 09:20:26;;;;;;;6.43;1.33;;;19.20;96.70;;;;;;5016378;28;20045;-85
2022/04/20 09:23:03;;;;;;;3.65;1.20;;;19.10;96.70;;;;;;5034506;28;20077;-84
2022/04/20 09:25:32;;;;;;;3.25;1.25;;;19.30;96.70;;;;;;5019943;28;20100;-85
2022/04/20 09:28:01;;;;;;;3.55;1.42;;;19.40;96.70;;;;;;5042155;28;20061;-85
2022/04/20 09:30:36;;;;;;;3.53;1.35;;;19.40;96.70;;;;;;5013396;28;20120;-84
2022/04/20 09:33:06;;;;;;;3.50;1.48;;;19.40;96.70;;;;;;5021506;28;20761;-86
2022/04/20 09:35:43;;;;;;;2.75;1.23;;;19.50;96.70;;;;;;5023622;28;20045;-88
2022/04/20 09:38:15;;;;;;;6.05;1.65;;;19.60;96.70;;;;;;5013736;28;20057;-87
2022/04/20 09:40:52;;;;;;;5.00;1.25;;;19.60;96.70;;;;;;5021513;28;20056;-84
2022/04/20 09:43:21;;;;;;;3.20;1.20;;;19.70;96.70;;;;;;5009034;28;20053;-85
2022/04/20 09:46:04;;;;;;;4.00;1.30;;;19.80;96.70;;;;;;5023570;28;20033;-85
2022/04/20 09:48:50;;;;;;;3.30;1.30;;;19.90;96.70;;;;;;5009439;28;20057;-86
2022/04/20 09:51:20;;;;;;;4.13;1.40;;;19.90;96.70;;;;;;5016815;28;20050;-86
2022/04/20 09:53:53;;;;;;;3.83;1.52;;;19.90;96.70;;;;;;5040810;28;20076;-85
2022/04/20 09:56:23;;;;;;;4.40;1.60;;;19.90;96.70;;;;;;5019157;28;20057;-85
2022/04/20 09:58:58;;;;;;;3.08;1.27;;;19.90;96.70;;;;;;5009988;28;20053;-85
2022/04/20 10:01:31;;;;;;;5.10;1.42;;;20.00;96.70;;;;;;5019244;28;20052;-85
2022/04/20 10:04:01;;;;;;;4.10;1.40;;;20.10;96.70;;;;;;5029200;28;20048;-86
2022/04/20 10:06:29;;;;;;;3.03;1.40;;;20.10;96.70;;;;;;5046097;28;20497;-86
2022/04/20 10:08:59;;;;;;;3.13;1.40;;;20.10;96.70;;;;;;5018502;28;20092;-85
2022/04/20 10:11:28;;;;;;;4.85;1.52;;;20.10;96.70;;;;;;5017943;28;20123;-85
2022/04/20 10:16:48;;;;;;;6.13;1.42;;;20.20;96.70;;;;;;5020414;28;20041;-85
2022/04/20 10:19:21;;;;;;;2.15;1.40;;;20.40;96.70;;;;;;5023272;28;20048;-84
2022/04/20 10:21:53;;;;;;;6.13;1.30;;;20.70;96.70;;;;;;5019092;28;20050;-86
2022/04/20 10:24:26;;;;;;;4.45;1.73;;;20.90;96.70;;;;;;5024287;28;20053;-85
2022/04/20 10:26:59;;;;;;;3.20;1.40;;;21.10;96.70;;;;;;5014336;28;20046;-86
2022/04/20 10:29:34;;;;;;;3.25;1.30;;;21.10;96.70;;;;;;5016200;28;20049;-85
2022/04/20 10:32:09;;;;;;;4.03;1.50;;;21.10;96.70;;;;;;5011718;28;20046;-85
2022/04/20 10:34:38;;;;;;;4.43;1.30;;;21.30;96.70;;;;;;5025810;28;20072;-85
2022/04/20 10:37:09;;;;;;;2.53;1.40;;;21.50;96.70;;;;;;5018886;28;20393;-85
2022/04/20 10:40:14;;;;;;;2.50;1.00;;;21.40;96.70;;;;;;5018317;28;20049;-85
2022/04/20 10:42:47;;;;;;;2.75;1.33;;;21.20;96.70;;;;;;5017890;28;20410;-85
2022/04/20 10:45:16;;;;;;;4.38;1.70;;;20.80;96.70;;;;;;5020663;28;20065;-85
2022/04/20 10:47:55;;;;;;;3.63;1.52;;;20.60;96.70;;;;;;5031176;28;20051;-85
2022/04/20 10:50:28;;;;;;;2.85;1.35;;;20.70;96.70;;;;;;5015113;28;20078;-84
2022/04/20 10:53:01;;;;;;;2.90;1.67;;;20.60;96.70;;;;;;5003579;28;20046;-85
2022/04/20 10:55:54;;;;;;;2.53;1.25;;;20.40;96.70;;;;;;5026553;28;20056;-85
2022/04/20 10:58:22;;;;;;;4.28;1.40;;;20.30;96.70;;;;;;5005797;28;20172;-86
2022/04/20 11:01:09;;;;;;;3.10;1.35;;;20.30;96.70;;;;;;5018741;28;20049;-85
2022/04/20 11:03:53;;;;;;;4.28;1.58;;;20.30;96.70;;;;;;5024299;28;20888;-85
2022/04/20 11:06:25;;;;;;;5.00;1.42;;;20.40;96.70;;;;;;5007135;28;20466;-85
2022/04/20 11:08:53;;;;;;;3.50;1.38;;;20.40;96.70;;;;;;5024307;28;20042;-84
2022/04/20 11:21:06;;;;;;;3.90;1.25;;;20.50;96.70;;;;;;5014527;28;20053;-84
2022/04/20 11:23:51;;;;;;;2.58;1.02;;;20.60;96.70;;;;;;5025481;28;20456;-85
2022/04/20 11:26:24;;;;;;;4.07;1.27;;;20.70;96.70;;;;;;5000854;28;20053;-85
2022/04/20 11:28:55;;;;;;;3.13;1.50;;;20.70;96.70;;;;;;5032070;28;20045;-85
2022/04/20 11:31:23;;;;;;;2.97;1.40;;;20.80;96.70;;;;;;5017621;28;20112;-85
2022/04/20 11:33:53;;;;;;;4.63;1.27;;;20.70;96.70;;;;;;5016994;28;20042;-86
2022/04/20 11:36:22;;;;;;;3.60;1.45;;;20.70;96.70;;;;;;5019371;28;20053;-84
2022/04/20 11:38:51;;;;;;;3.47;1.23;;;20.70;96.70;;;;;;5012906;28;20048;-85
2022/04/20 11:41:19;;;;;;;4.53;1.60;;;20.90;96.70;;;;;;5020850;28;20038;-86
2022/04/20 11:43:50;;;;;;;3.67;1.30;;;21.00;96.70;;;;;;5028855;28;20053;-86
2022/04/20 11:46:20;;;;;;;3.33;1.55;;;21.20;96.70;;;;;;5019640;28;20041;-86
2022/04/20 11:48:53;;;;;;;3.28;1.30;;;21.40;96.70;;;;;;5017971;28;20057;-86
2022/04/20 11:51:27;;;;;;;9.15;1.92;;;21.40;96.70;;;;;;5014723;28;20064;-85
2022/04/20 11:53:55;;;;;;;1.73;1.00;;;21.40;96.70;;;;;;5013238;28;20046;-86
2022/04/20 11:56:49;;;;;;;3.90;1.65;;;21.50;96.70;;;;;;4990450;28;20056;-86
2022/04/20 11:59:18;;;;;;;1.98;1.27;;;21.50;96.70;;;;;;5001561;28;20065;-86
2022/04/20 12:01:48;;;;;;;2.40;1.33;;;21.50;96.70;;;;;;5023107;28;20042;-86
2022/04/20 12:04:18;;;;;;;2.67;1.17;;;21.50;96.70;;;;;;5011770;28;20053;-86
2022/04/20 12:06:49;;;;;;;4.47;1.50;;;21.60;96.70;;;;;;5023049;28;20034;-86
2022/04/20 12:09:20;;;;;;;3.13;1.60;;;21.90;96.70;;;;;;5009421;28;20049;-86
2022/04/20 12:11:51;;;;;;;3.75;1.42;;;22.10;96.70;;;;;;5022141;28;20092;-86
2022/04/20 12:14:19;;;;;;;7.82;1.60;;;22.20;96.60;;;;;;5008189;28;20057;-86
2022/04/20 12:16:51;;;;;;;6.25;1.63;;;22.10;95.60;;;;;;5013562;28;20073;-86
2022/04/20 12:19:28;;;;;;;4.35;1.67;;;22.10;95.60;;;;;;5039611;28;20042;-87
2022/04/20 12:22:05;;;;;;;4.57;1.67;;;22.10;95.80;;;;;;5018855;28;20056;-87
2022/04/20 12:24:33;;;;;;;4.50;1.73;;;22.40;95.90;;;;;;5016897;28;20054;-87
2022/04/20 12:27:02;;;;;;;4.50;1.35;;;22.60;95.20;;;;;;5013805;28;20100;-86
2022/04/20 12:29:34;;;;;;;7.85;1.90;;;22.60;95.10;;;;;;5019527;28;20037;-85
2022/04/20 12:32:05;;;;;;;2.05;1.20;;;22.50;95.00;;;;;;5000655;28;20092;-85
2022/04/20 12:34:33;;;;;;;3.22;1.50;;;22.40;94.90;;;;;;5015107;28;20050;-86
2022/04/20 12:37:14;;;;;;;3.85;1.30;;;22.50;93.80;;;;;;4989944;28;20050;-86
2022/04/20 12:39:47;;;;;;;3.20;1.48;;;22.60;94.10;;;;;;5013794;28;20455;-85
2022/04/20 12:42:18;;;;;;;3.83;1.35;;;22.80;94.70;;;;;;5012622;28;20531;-86
2022/04/20 12:44:54;;;;;;;6.10;1.40;;;22.80;94.40;;;;;;5009496;28;20538;-86
2022/04/20 12:47:38;;;;;;;3.42;1.40;;;22.70;94.20;;;;;;5020856;28;20098;-85
2022/04/20 12:50:21;;;;;;;2.47;1.38;;;22.80;94.00;;;;;;5014335;28;20072;-85
2022/04/20 12:52:54;;;;;;;2.17;1.38;;;22.70;94.50;;;;;;5040053;28;20069;-86
2022/04/20 12:55:22;;;;;;;4.20;1.70;;;22.80;94.40;;;;;;5021800;28;20156;-86
2022/04/20 13:03:36;;;;;;;2.83;1.30;;;23.00;94.30;;;;;;5023327;28;20530;-85
2022/04/20 13:06:12;;;;;;;3.10;1.35;;;22.80;94.60;;;;;;5023535;28;20056;-85
2022/04/20 13:08:44;;;;;;;1.88;1.38;;;22.70;94.90;;;;;;5039800;28;20188;-85
2022/04/20 13:11:13;;;;;;;4.53;1.33;;;22.80;95.50;;;;;;5021073;28;20075;-85
2022/04/20 13:14:01;;;;;;;1.50;1.33;;;22.80;93.10;;;;;;5028339;28;20054;-85
2022/04/20 13:16:30;;;;;;;2.90;1.42;;;22.90;94.60;;;;;;5020493;28;20061;-85
2022/04/20 13:18:59;;;;;;;3.30;1.13;;;22.90;94.30;;;;;;5026325;28;20073;-85
2022/04/20 13:21:28;;;;;;;3.47;1.50;;;22.80;94.00;;;;;;5026289;28;20487;-86
2022/04/20 13:23:56;;;;;;;3.72;1.60;;;22.90;94.20;;;;;;5021069;28;20046;-87
2022/04/20 13:29:12;;;;;;;2.90;1.35;;;22.90;93.90;;;;;;5035293;28;20100;-85
2022/04/20 13:31:40;;;;;;;2.28;1.20;;;23.00;93.70;;;;;;5006698;28;20057;-85
2022/04/20 13:34:10;;;;;;;4.35;1.40;;;23.00;93.40;;;;;;5035484;28;20079;-85
2022/04/20 13:36:38;;;;;;;4.10;1.25;;;23.00;94.10;;;;;;5027588;28;20099;-86
2022/04/20 13:39:06;;;;;;;3.38;1.20;;;23.00;93.50;;;;;;5020616;28;20046;-86
2022/04/20 13:41:34;;;;;;;3.45;1.48;;;22.90;94.10;;;;;;5022958;28;20073;-87
2022/04/20 13:44:03;;;;;;;5.30;1.75;;;22.80;94.20;;;;;;5045058;28;20057;-86
2022/04/20 13:46:31;;;;;;;2.53;1.25;;;22.90;94.40;;;;;;5020001;28;20057;-86
2022/04/20 13:48:58;;;;;;;2.40;1.38;;;22.80;93.60;;;;;;5011154;28;20038;-85
2022/04/20 13:51:43;;;;;;;3.03;1.35;;;22.80;93.70;;;;;;5038280;28;20049;-87
2022/04/20 13:54:12;;;;;;;3.10;1.40;;;22.70;94.10;;;;;;4981202;28;20141;-87
2022/04/20 13:56:41;;;;;;;1.60;1.05;;;22.70;94.60;;;;;;4979403;28;20145;-87
2022/04/20 13:59:09;;;;;;;5.28;1.70;;;22.70;94.60;;;;;;4978034;28;20524;-86
2022/04/20 14:01:37;;;;;;;5.25;1.30;;;22.70;94.60;;;;;;4982120;28;20058;-86
2022/04/20 14:04:06;;;;;;;4.05;1.50;;;22.60;94.90;;;;;;4971199;28;20177;-86
2022/04/20 14:06:34;;;;;;;3.22;1.20;;;22.60;94.80;;;;;;4955360;28;20065;-87
2022/04/20 14:09:04;;;;;;;1.70;1.20;;;22.70;95.40;;;;;;4979451;28;20056;-87